Time;durP1;ratioP1;P1;durP2;ratioP2;P2;SDS_P1;SDS_P2;PMS_P1;PMS_P2;Temp;Humidity;BMP_temperature;BMP_pressure;BME280_temperature;BME280_humidity;BME280_pressure;Samples;Min_cycle;Max_cycle;Signal;HPM_P1;HPM_P2
2023/11/13 00:01:09;;;;;;;3.33;2.80;;;;;;;;;;5863362;28;20056;-72
2023/11/13 00:04:00;;;;;;;3.55;2.92;;;;;;;;;;5863922;28;20140;-72
2023/11/13 00:06:51;;;;;;;3.63;2.40;;;;;;;;;;5879008;28;20102;-72
2023/11/13 00:09:42;;;;;;;6.20;3.92;;;;;;;;;;5886578;28;20053;-72
2023/11/13 00:12:33;;;;;;;6.60;3.03;;;;;;;;;;5885940;28;20137;-72
2023/11/13 00:15:23;;;;;;;4.82;3.45;;;;;;;;;;5885610;28;20041;-72
2023/11/13 00:18:14;;;;;;;4.90;3.50;;;;;;;;;;5886289;28;20053;-72
2023/11/13 00:21:05;;;;;;;7.82;4.43;;;;;;;;;;5886285;28;20454;-72
2023/11/13 00:23:59;;;;;;;8.50;4.75;;;;;;;;;;5886854;28;20045;-72
2023/11/13 00:26:50;;;;;;;32.92;5.15;;;;;;;;;;5885831;28;20037;-72
2023/11/13 00:29:40;;;;;;;6.55;4.57;;;;;;;;;;5886331;28;20498;-72
2023/11/13 00:32:31;;;;;;;13.50;5.15;;;;;;;;;;5885560;28;20052;-72
2023/11/13 00:35:22;;;;;;;5.35;3.13;;;;;;;;;;5885575;28;20045;-72
2023/11/13 00:38:13;;;;;;;4.03;2.55;;;;;;;;;;5884621;28;20049;-72
2023/11/13 00:41:08;;;;;;;7.65;3.92;;;;;;;;;;5885723;28;20132;-73
2023/11/13 00:44:01;;;;;;;5.13;2.90;;;;;;;;;;5884933;28;20041;-73
2023/11/13 00:46:52;;;;;;;7.00;4.20;;;;;;;;;;5885340;28;20123;-72
2023/11/13 00:49:44;;;;;;;3.95;3.17;;;;;;;;;;5886034;28;20414;-72
2023/11/13 00:52:35;;;;;;;4.55;3.08;;;;;;;;;;5885547;28;20051;-72
2023/11/13 00:55:26;;;;;;;5.55;4.03;;;;;;;;;;5884918;28;20045;-72
2023/11/13 00:58:17;;;;;;;4.75;2.28;;;;;;;;;;5862585;28;20179;-72
2023/11/13 01:01:13;;;;;;;5.43;2.40;;;;;;;;;;5863308;28;20045;-72
2023/11/13 01:04:04;;;;;;;6.38;3.05;;;;;;;;;;5871372;28;20100;-72
2023/11/13 01:06:56;;;;;;;3.80;2.45;;;;;;;;;;5874268;28;20048;-72
2023/11/13 01:09:46;;;;;;;4.57;3.25;;;;;;;;;;5886017;28;20103;-72
2023/11/13 01:12:37;;;;;;;5.40;3.03;;;;;;;;;;5889988;28;20051;-72
2023/11/13 01:15:28;;;;;;;4.28;3.33;;;;;;;;;;5888731;28;20040;-72
2023/11/13 01:18:19;;;;;;;4.80;2.50;;;;;;;;;;5888570;28;20070;-72
2023/11/13 01:21:10;;;;;;;2.38;2.17;;;;;;;;;;5890308;28;20131;-72
2023/11/13 01:24:01;;;;;;;4.85;3.78;;;;;;;;;;5905298;28;20052;-72
2023/11/13 01:26:53;;;;;;;3.40;2.92;;;;;;;;;;5890103;28;20052;-72
2023/11/13 01:29:44;;;;;;;14.20;3.78;;;;;;;;;;5890221;28;20048;-72
2023/11/13 01:32:35;;;;;;;9.55;3.83;;;;;;;;;;5889456;28;20098;-72
2023/11/13 01:35:25;;;;;;;5.50;2.65;;;;;;;;;;5889658;28;20048;-72
2023/11/13 01:38:16;;;;;;;7.35;3.70;;;;;;;;;;5869189;28;20072;-72
2023/11/13 01:41:07;;;;;;;5.68;2.53;;;;;;;;;;5866546;28;20053;-72
2023/11/13 01:43:58;;;;;;;4.30;2.53;;;;;;;;;;5867075;28;20052;-72
2023/11/13 01:46:49;;;;;;;5.32;3.10;;;;;;;;;;5872730;28;20055;-72
2023/11/13 01:49:41;;;;;;;6.55;3.58;;;;;;;;;;5889800;28;20509;-72
2023/11/13 01:52:33;;;;;;;9.30;3.47;;;;;;;;;;5888986;28;20044;-72
2023/11/13 01:55:24;;;;;;;5.50;3.70;;;;;;;;;;5887987;28;20045;-72
2023/11/13 01:58:16;;;;;;;4.07;2.30;;;;;;;;;;5871027;28;20423;-72
2023/11/13 02:01:07;;;;;;;6.80;3.22;;;;;;;;;;5865827;28;20199;-72
2023/11/13 02:03:58;;;;;;;4.90;2.58;;;;;;;;;;5848903;28;20103;-72
2023/11/13 02:06:49;;;;;;;7.57;2.90;;;;;;;;;;5865775;28;20411;-72
2023/11/13 02:09:41;;;;;;;6.22;3.20;;;;;;;;;;5866115;28;20045;-72
2023/11/13 02:12:32;;;;;;;5.20;3.30;;;;;;;;;;5865464;28;20049;-73
2023/11/13 02:15:23;;;;;;;3.50;2.28;;;;;;;;;;5865408;28;20119;-73
2023/11/13 02:18:14;;;;;;;7.50;3.50;;;;;;;;;;5881377;28;20057;-73
2023/11/13 02:21:05;;;;;;;8.35;3.95;;;;;;;;;;5888797;28;20517;-73
2023/11/13 02:23:56;;;;;;;6.60;3.45;;;;;;;;;;5888053;28;20053;-72
2023/11/13 02:26:47;;;;;;;6.22;3.45;;;;;;;;;;5884886;28;20499;-72
2023/11/13 02:29:38;;;;;;;6.47;3.60;;;;;;;;;;5865511;28;20050;-72
2023/11/13 02:32:29;;;;;;;4.50;3.58;;;;;;;;;;5864837;28;20056;-72
2023/11/13 02:35:20;;;;;;;4.35;2.13;;;;;;;;;;5865222;28;20126;-72
2023/11/13 02:38:10;;;;;;;10.15;3.60;;;;;;;;;;5864745;28;20048;-72
2023/11/13 02:41:01;;;;;;;7.57;3.75;;;;;;;;;;5865176;28;20415;-72
2023/11/13 02:43:52;;;;;;;9.38;3.90;;;;;;;;;;5865499;28;20064;-72
2023/11/13 02:46:43;;;;;;;3.63;2.75;;;;;;;;;;5864373;28;20113;-72
2023/11/13 02:49:34;;;;;;;4.32;3.28;;;;;;;;;;5865179;28;20049;-72
2023/11/13 02:52:24;;;;;;;15.68;3.50;;;;;;;;;;5864495;28;20056;-72
2023/11/13 02:55:16;;;;;;;3.33;2.22;;;;;;;;;;5864927;28;20061;-72
2023/11/13 02:58:07;;;;;;;3.50;3.20;;;;;;;;;;5879470;28;20053;-72
2023/11/13 03:00:58;;;;;;;3.20;2.65;;;;;;;;;;5864926;28;20041;-72
2023/11/13 03:03:49;;;;;;;4.20;3.15;;;;;;;;;;5864726;28;20072;-72
2023/11/13 03:06:40;;;;;;;3.20;2.38;;;;;;;;;;5864635;28;20045;-72
2023/11/13 03:09:30;;;;;;;3.47;2.28;;;;;;;;;;5886149;28;20044;-72
2023/11/13 03:12:22;;;;;;;6.63;2.88;;;;;;;;;;5887565;28;20057;-72
2023/11/13 03:15:12;;;;;;;4.70;2.33;;;;;;;;;;5887592;28;20434;-72
2023/11/13 03:18:03;;;;;;;3.53;2.47;;;;;;;;;;5878369;28;20058;-72
2023/11/13 03:20:54;;;;;;;6.78;2.03;;;;;;;;;;5864722;28;20077;-72
2023/11/13 03:23:45;;;;;;;5.70;2.58;;;;;;;;;;5864398;28;20395;-72
2023/11/13 03:26:35;;;;;;;5.30;3.00;;;;;;;;;;5863954;28;20045;-72
2023/11/13 03:29:26;;;;;;;2.80;2.08;;;;;;;;;;5883244;28;20045;-72
2023/11/13 03:32:17;;;;;;;9.80;2.97;;;;;;;;;;5886733;28;20414;-72
2023/11/13 03:35:11;;;;;;;3.40;2.75;;;;;;;;;;5885517;28;20102;-72
2023/11/13 03:38:02;;;;;;;3.50;1.90;;;;;;;;;;5886578;28;20072;-72
2023/11/13 03:40:53;;;;;;;3.85;2.78;;;;;;;;;;5887127;28;20049;-72
2023/11/13 03:43:43;;;;;;;3.50;3.13;;;;;;;;;;5887074;28;20044;-72
2023/11/13 03:46:34;;;;;;;6.90;4.28;;;;;;;;;;5886497;28;20061;-72
2023/11/13 03:49:25;;;;;;;3.17;2.88;;;;;;;;;;5886760;28;20132;-72
2023/11/13 03:52:16;;;;;;;5.25;2.78;;;;;;;;;;5886627;28;20080;-72
2023/11/13 03:55:07;;;;;;;5.07;3.08;;;;;;;;;;5886812;28;20503;-72
2023/11/13 03:57:57;;;;;;;4.45;3.08;;;;;;;;;;5886834;28;20052;-72
2023/11/13 04:00:50;;;;;;;2.80;2.20;;;;;;;;;;5886276;28;20045;-72
2023/11/13 04:03:42;;;;;;;2.92;2.60;;;;;;;;;;5886788;28;20052;-72
2023/11/13 04:06:32;;;;;;;5.63;3.13;;;;;;;;;;5886463;28;20053;-72
2023/11/13 04:09:23;;;;;;;4.95;3.08;;;;;;;;;;5886425;28;20380;-72
2023/11/13 04:12:14;;;;;;;4.22;2.78;;;;;;;;;;5886068;28;20045;-72
2023/11/13 04:15:05;;;;;;;3.83;3.17;;;;;;;;;;5886247;28;20053;-72
2023/11/13 04:17:56;;;;;;;3.50;2.33;;;;;;;;;;5886482;28;20045;-72
2023/11/13 04:20:47;;;;;;;4.88;2.00;;;;;;;;;;5886048;28;20195;-72
2023/11/13 04:23:38;;;;;;;4.03;2.42;;;;;;;;;;5886438;28;20049;-72
2023/11/13 04:26:29;;;;;;;6.38;3.17;;;;;;;;;;5886115;28;20490;-72
2023/11/13 04:29:20;;;;;;;2.40;2.20;;;;;;;;;;5885959;28;20098;-72
2023/11/13 04:32:11;;;;;;;2.85;2.65;;;;;;;;;;5885318;28;20048;-72
2023/11/13 04:35:01;;;;;;;9.45;4.15;;;;;;;;;;5885844;28;20059;-72
2023/11/13 04:37:54;;;;;;;4.75;3.67;;;;;;;;;;5886406;28;20053;-72
2023/11/13 04:40:45;;;;;;;7.30;4.25;;;;;;;;;;5885857;28;20045;-73
2023/11/13 04:43:38;;;;;;;7.40;6.22;;;;;;;;;;5886004;28;20465;-72
2023/11/13 04:46:29;;;;;;;8.40;5.93;;;;;;;;;;5884474;28;20049;-72
2023/11/13 04:49:19;;;;;;;17.38;7.05;;;;;;;;;;5884394;28;20163;-73
2023/11/13 04:52:10;;;;;;;11.18;5.75;;;;;;;;;;5866653;28;20057;-73
2023/11/13 04:55:01;;;;;;;6.90;5.00;;;;;;;;;;5862750;28;20144;-72
2023/11/13 04:57:52;;;;;;;8.55;4.60;;;;;;;;;;5863117;28;20041;-72
2023/11/13 05:00:43;;;;;;;11.85;5.65;;;;;;;;;;5861195;28;20080;-72
2023/11/13 05:03:34;;;;;;;8.85;4.10;;;;;;;;;;5862433;28;20056;-72
2023/11/13 05:06:26;;;;;;;6.78;5.57;;;;;;;;;;5862338;28;20045;-72
2023/11/13 05:09:18;;;;;;;15.55;6.63;;;;;;;;;;5862273;28;20128;-72
2023/11/13 05:12:09;;;;;;;7.85;5.00;;;;;;;;;;5861896;28;20050;-72
2023/11/13 05:15:00;;;;;;;8.75;4.82;;;;;;;;;;5862623;28;20052;-72
2023/11/13 05:17:51;;;;;;;8.95;4.25;;;;;;;;;;5862717;28;20054;-72
2023/11/13 05:20:45;;;;;;;5.30;3.20;;;;;;;;;;5861893;28;20045;-72
2023/11/13 05:23:37;;;;;;;2.50;2.30;;;;;;;;;;5862419;28;20410;-72
2023/11/13 05:26:28;;;;;;;4.63;2.50;;;;;;;;;;5861998;28;20049;-72
2023/11/13 05:29:19;;;;;;;6.28;2.97;;;;;;;;;;5861921;28;20054;-72
2023/11/13 05:32:09;;;;;;;5.28;2.92;;;;;;;;;;5861587;28;20049;-72
2023/11/13 05:35:01;;;;;;;9.48;3.47;;;;;;;;;;5862156;28;20037;-72
2023/11/13 05:37:51;;;;;;;2.67;1.95;;;;;;;;;;5862725;28;20419;-73
2023/11/13 05:40:43;;;;;;;4.68;2.72;;;;;;;;;;5860667;28;20045;-73
2023/11/13 05:43:34;;;;;;;2.72;2.50;;;;;;;;;;5860847;28;20422;-73
2023/11/13 05:46:25;;;;;;;8.10;3.05;;;;;;;;;;5861670;28;20495;-73
2023/11/13 05:49:16;;;;;;;2.47;2.28;;;;;;;;;;5861823;28;20056;-73
2023/11/13 05:52:07;;;;;;;4.35;2.53;;;;;;;;;;5861670;28;20048;-73
2023/11/13 05:54:58;;;;;;;4.20;2.75;;;;;;;;;;5862505;28;20092;-73
2023/11/13 05:57:50;;;;;;;6.40;3.55;;;;;;;;;;5865315;28;20045;-73
2023/11/13 06:00:41;;;;;;;3.17;2.88;;;;;;;;;;5880986;28;20107;-73
2023/11/13 06:03:32;;;;;;;5.57;3.90;;;;;;;;;;5889338;28;20124;-73
2023/11/13 06:06:22;;;;;;;6.18;3.25;;;;;;;;;;5889162;28;20076;-73
2023/11/13 06:09:13;;;;;;;5.35;4.15;;;;;;;;;;5886422;28;20067;-73
2023/11/13 06:12:05;;;;;;;15.95;5.93;;;;;;;;;;5865560;28;20445;-73
2023/11/13 06:14:56;;;;;;;12.05;5.93;;;;;;;;;;5866059;28;20049;-73
2023/11/13 06:17:46;;;;;;;5.05;4.55;;;;;;;;;;5865856;28;20360;-73
2023/11/13 06:20:37;;;;;;;5.72;3.65;;;;;;;;;;5865142;28;20064;-73
2023/11/13 06:23:28;;;;;;;11.75;3.53;;;;;;;;;;5865829;28;20057;-73
2023/11/13 06:26:19;;;;;;;3.65;2.60;;;;;;;;;;5875934;28;20063;-73
2023/11/13 06:29:11;;;;;;;5.22;3.85;;;;;;;;;;5888714;28;20048;-73
2023/11/13 06:32:02;;;;;;;4.45;2.83;;;;;;;;;;5887320;28;20487;-73
2023/11/13 06:34:52;;;;;;;4.40;3.50;;;;;;;;;;5889497;28;20125;-73
2023/11/13 06:37:43;;;;;;;3.55;3.20;;;;;;;;;;5888635;28;20057;-72
2023/11/13 06:40:34;;;;;;;6.80;3.85;;;;;;;;;;5887905;28;20048;-73
2023/11/13 06:43:25;;;;;;;6.60;3.33;;;;;;;;;;5888545;28;20175;-73
2023/11/13 06:46:16;;;;;;;9.55;3.67;;;;;;;;;;5887988;28;20403;-73
2023/11/13 06:49:10;;;;;;;12.38;3.00;;;;;;;;;;5888343;28;20060;-73
2023/11/13 06:52:01;;;;;;;6.13;2.65;;;;;;;;;;5865942;28;20057;-73
2023/11/13 06:54:54;;;;;;;4.47;2.50;;;;;;;;;;5865866;28;20045;-73
2023/11/13 06:57:45;;;;;;;3.38;2.22;;;;;;;;;;5865008;28;20042;-73
2023/11/13 07:00:37;;;;;;;3.50;2.95;;;;;;;;;;5867676;28;20052;-73
2023/11/13 07:03:27;;;;;;;3.35;2.72;;;;;;;;;;5864953;28;20050;-73
2023/11/13 07:06:18;;;;;;;6.45;3.28;;;;;;;;;;5864511;28;20775;-73
2023/11/13 07:09:13;;;;;;;4.57;2.47;;;;;;;;;;5863812;28;20056;-73
2023/11/13 07:12:04;;;;;;;4.43;1.67;;;;;;;;;;5884347;28;20057;-73
2023/11/13 07:14:57;;;;;;;2.53;2.30;;;;;;;;;;5887911;28;20056;-73
2023/11/13 07:17:48;;;;;;;2.28;1.63;;;;;;;;;;5887796;28;20048;-73
2023/11/13 07:20:39;;;;;;;3.05;1.85;;;;;;;;;;5887120;28;20182;-73
2023/11/13 07:23:30;;;;;;;3.17;2.83;;;;;;;;;;5887579;28;20133;-73
2023/11/13 07:26:21;;;;;;;8.13;2.85;;;;;;;;;;5887431;28;20049;-73
2023/11/13 07:29:12;;;;;;;4.88;3.25;;;;;;;;;;5887661;28;20060;-73
2023/11/13 07:32:03;;;;;;;4.25;3.25;;;;;;;;;;5868409;28;20392;-73
2023/11/13 07:34:54;;;;;;;7.47;4.68;;;;;;;;;;5864712;28;20569;-73
2023/11/13 07:37:45;;;;;;;4.63;3.40;;;;;;;;;;5864270;28;20049;-73
2023/11/13 07:40:36;;;;;;;5.40;4.63;;;;;;;;;;5863544;28;20383;-73
2023/11/13 07:43:28;;;;;;;3.22;2.45;;;;;;;;;;5864229;28;20073;-73
2023/11/13 07:46:19;;;;;;;7.10;3.53;;;;;;;;;;5863674;28;20541;-73
2023/11/13 07:49:11;;;;;;;2.83;2.55;;;;;;;;;;5863895;28;20060;-73
2023/11/13 07:52:04;;;;;;;3.97;2.88;;;;;;;;;;5878447;28;20503;-73
2023/11/13 07:54:56;;;;;;;2.42;2.10;;;;;;;;;;5887254;28;20047;-73
2023/11/13 07:57:47;;;;;;;4.82;3.15;;;;;;;;;;5886922;28;20128;-73
2023/11/13 08:00:41;;;;;;;5.00;2.80;;;;;;;;;;5882067;28;20045;-73
2023/11/13 08:03:32;;;;;;;5.28;3.67;;;;;;;;;;5863335;28;20049;-73
2023/11/13 08:06:22;;;;;;;3.78;2.47;;;;;;;;;;5863298;28;20444;-72
2023/11/13 08:09:15;;;;;;;10.02;4.22;;;;;;;;;;5863779;28;20475;-72
2023/11/13 08:12:06;;;;;;;12.80;3.78;;;;;;;;;;5869682;28;20050;-72
2023/11/13 08:14:59;;;;;;;4.95;2.42;;;;;;;;;;5863738;28;20048;-72
2023/11/13 08:17:52;;;;;;;8.52;5.65;;;;;;;;;;5863246;28;20052;-72
2023/11/13 08:20:46;;;;;;;4.18;2.72;;;;;;;;;;5868429;28;20049;-72
2023/11/13 08:23:36;;;;;;;11.02;2.95;;;;;;;;;;5886337;28;20120;-72
2023/11/13 08:26:32;;;;;;;8.15;3.25;;;;;;;;;;5886145;28;20067;-73
2023/11/13 08:29:25;;;;;;;5.00;4.47;;;;;;;;;;5886455;28;20410;-73
2023/11/13 08:32:17;;;;;;;4.22;3.25;;;;;;;;;;5866911;28;20518;-73
2023/11/13 08:35:12;;;;;;;4.35;3.50;;;;;;;;;;5862774;28;20180;-72
2023/11/13 08:38:04;;;;;;;2.00;1.80;;;;;;;;;;5862924;28;20062;-72
2023/11/13 08:40:55;;;;;;;6.53;4.03;;;;;;;;;;5862885;28;20045;-72
2023/11/13 08:43:46;;;;;;;2.05;1.73;;;;;;;;;;5865952;28;20047;-72
2023/11/13 08:46:36;;;;;;;2.88;2.20;;;;;;;;;;5885015;28;20068;-72
2023/11/13 08:49:27;;;;;;;2.42;2.22;;;;;;;;;;5885048;28;20041;-72
2023/11/13 08:52:20;;;;;;;1.77;1.67;;;;;;;;;;5870549;28;20372;-73
2023/11/13 08:55:13;;;;;;;2.83;2.10;;;;;;;;;;5862665;28;20060;-72
2023/11/13 08:58:07;;;;;;;3.58;3.00;;;;;;;;;;5862686;28;20482;-72
2023/11/13 09:00:59;;;;;;;3.80;3.30;;;;;;;;;;5862477;28;20172;-72
2023/11/13 09:03:55;;;;;;;6.60;2.60;;;;;;;;;;5863036;28;20410;-72
2023/11/13 09:06:46;;;;;;;5.20;3.28;;;;;;;;;;5862413;28;20495;-72
2023/11/13 09:09:38;;;;;;;6.18;2.83;;;;;;;;;;5862775;28;20045;-72
2023/11/13 09:12:30;;;;;;;1.92;1.58;;;;;;;;;;5861815;28;20042;-72
2023/11/13 09:15:22;;;;;;;1.67;1.58;;;;;;;;;;5862176;28;20060;-72
2023/11/13 09:18:14;;;;;;;8.27;3.42;;;;;;;;;;5862377;28;20050;-72
2023/11/13 09:21:05;;;;;;;5.65;2.92;;;;;;;;;;5864398;28;20054;-72
2023/11/13 09:23:56;;;;;;;3.78;2.80;;;;;;;;;;5886254;28;20430;-72
2023/11/13 09:26:47;;;;;;;3.78;3.42;;;;;;;;;;5885633;28;20513;-72
2023/11/13 09:29:46;;;;;;;3.97;2.00;;;;;;;;;;5885869;28;20045;-72
2023/11/13 09:32:44;;;;;;;3.65;2.10;;;;;;;;;;5887881;28;20041;-72
2023/11/13 09:35:34;;;;;;;3.63;2.00;;;;;;;;;;5890103;28;20056;-72
2023/11/13 09:38:25;;;;;;;4.03;2.22;;;;;;;;;;5890179;28;20060;-72
2023/11/13 09:41:19;;;;;;;14.73;2.53;;;;;;;;;;5887991;28;20139;-72
2023/11/13 09:44:11;;;;;;;6.82;3.38;;;;;;;;;;5865504;28;20053;-72
2023/11/13 09:47:09;;;;;;;2.70;2.35;;;;;;;;;;5866113;28;20049;-73
2023/11/13 09:50:15;;;;;;;7.45;3.33;;;;;;;;;;5864902;28;20141;-73
2023/11/13 09:53:08;;;;;;;27.08;3.40;;;;;;;;;;5866130;28;20064;-72
2023/11/13 09:55:59;;;;;;;2.42;2.03;;;;;;;;;;5866983;28;20423;-73
2023/11/13 09:58:51;;;;;;;3.08;2.45;;;;;;;;;;5866778;28;20056;-72
2023/11/13 10:01:43;;;;;;;3.13;1.85;;;;;;;;;;5874304;28;20048;-72
2023/11/13 10:04:34;;;;;;;4.85;3.20;;;;;;;;;;5889758;28;20387;-72
2023/11/13 10:07:27;;;;;;;3.80;2.22;;;;;;;;;;5889436;28;20048;-72
2023/11/13 10:10:22;;;;;;;2.78;2.20;;;;;;;;;;5887849;28;20049;-73
2023/11/13 10:13:18;;;;;;;3.10;1.88;;;;;;;;;;5882996;28;20619;-73
2023/11/13 10:16:19;;;;;;;4.90;2.97;;;;;;;;;;5865341;28;20075;-73
2023/11/13 10:19:16;;;;;;;2.88;2.05;;;;;;;;;;5866242;28;20049;-73
2023/11/13 10:22:16;;;;;;;1.95;1.70;;;;;;;;;;5865531;28;20053;-73
2023/11/13 10:25:11;;;;;;;6.85;2.30;;;;;;;;;;5872791;28;20056;-72
2023/11/13 10:28:02;;;;;;;2.35;1.75;;;;;;;;;;5889141;28;20068;-72
2023/11/13 10:31:01;;;;;;;3.25;1.80;;;;;;;;;;5889078;28;20414;-72
2023/11/13 10:33:59;;;;;;;;;;;;;;;;;;5889874;28;20040;-72
2023/11/13 10:37:24;;;;;;;3.28;2.35;;;;;;;;;;5888595;28;19924;-72
2023/11/13 10:40:27;;;;;;;2.80;1.83;;;;;;;;;;5865906;28;20045;-72
2023/11/13 10:43:30;;;;;;;4.53;1.42;;;;;;;;;;5887675;28;20059;-73
2023/11/13 10:46:29;;;;;;;5.47;2.17;;;;;;;;;;5872495;28;20057;-73
2023/11/13 10:49:21;;;;;;;5.78;2.28;;;;;;;;;;5866068;28;20119;-73
2023/11/13 10:52:13;;;;;;;2.13;1.92;;;;;;;;;;5863895;28;20584;-73
2023/11/13 10:55:05;;;;;;;11.05;2.17;;;;;;;;;;5863632;28;20574;-73
2023/11/13 10:57:56;;;;;;;2.60;2.35;;;;;;;;;;5864429;28;20202;-72
2023/11/13 11:00:46;;;;;;;3.00;1.42;;;;;;;;;;5865075;28;20411;-72
2023/11/13 11:03:45;;;;;;;1.92;1.75;;;;;;;;;;5865262;28;20068;-73
2023/11/13 11:06:40;;;;;;;1.33;1.15;;;;;;;;;;5864621;28;20415;-73
2023/11/13 11:09:33;;;;;;;4.07;2.38;;;;;;;;;;5864998;28;20060;-72
2023/11/13 11:12:59;;;;;;;4.03;2.35;;;;;;;;;;5864525;28;20052;-73
2023/11/13 11:16:04;;;;;;;1.15;1.05;;;;;;;;;;5863402;28;20052;-73
2023/11/13 11:19:40;;;;;;;3.63;1.60;;;;;;;;;;5863704;28;20521;-73
2023/11/13 11:22:47;;;;;;;1.55;1.38;;;;;;;;;;5864426;28;20052;-72
2023/11/13 11:25:50;;;;;;;1.20;1.17;;;;;;;;;;5868836;28;20067;-74
2023/11/13 11:28:44;;;;;;;5.15;1.65;;;;;;;;;;5886459;28;20052;-72
2023/11/13 11:31:39;;;;;;;0.75;0.75;;;;;;;;;;5887069;28;20041;-72
2023/11/13 11:34:31;;;;;;;3.30;2.17;;;;;;;;;;5887618;28;20139;-72
2023/11/13 11:37:22;;;;;;;1.73;1.58;;;;;;;;;;5877727;28;20045;-72
2023/11/13 11:40:12;;;;;;;1.17;1.05;;;;;;;;;;5866957;28;20053;-72
2023/11/13 11:43:03;;;;;;;1.42;1.33;;;;;;;;;;5886118;28;20098;-72
2023/11/13 11:45:58;;;;;;;2.15;1.70;;;;;;;;;;5886826;28;20045;-73
2023/11/13 11:48:51;;;;;;;2.38;1.23;;;;;;;;;;5887264;28;20636;-72
2023/11/13 11:51:42;;;;;;;0.90;0.90;;;;;;;;;;5885624;28;20068;-72
2023/11/13 11:54:35;;;;;;;1.30;1.20;;;;;;;;;;5886601;28;20045;-72
2023/11/13 11:57:26;;;;;;;5.38;2.13;;;;;;;;;;5886505;28;20044;-72
2023/11/13 12:00:19;;;;;;;4.28;2.00;;;;;;;;;;5886369;28;20041;-72
2023/11/13 12:03:11;;;;;;;3.88;2.70;;;;;;;;;;5886922;28;20414;-72
2023/11/13 12:06:03;;;;;;;5.78;2.40;;;;;;;;;;5886451;28;20416;-72
2023/11/13 12:08:54;;;;;;;1.42;1.33;;;;;;;;;;5886470;28;20059;-72
2023/11/13 12:11:46;;;;;;;2.88;1.52;;;;;;;;;;5886470;28;20045;-72
2023/11/13 12:14:37;;;;;;;1.25;1.15;;;;;;;;;;5886874;28;20055;-72
2023/11/13 12:17:28;;;;;;;1.35;1.13;;;;;;;;;;5885783;28;20086;-72
2023/11/13 12:20:19;;;;;;;5.13;1.90;;;;;;;;;;5886480;28;20049;-72
2023/11/13 12:23:15;;;;;;;2.72;1.70;;;;;;;;;;5886641;28;20126;-72
2023/11/13 12:26:10;;;;;;;1.40;1.17;;;;;;;;;;5885639;28;20049;-72
2023/11/13 12:29:16;;;;;;;4.38;2.13;;;;;;;;;;5886151;28;20095;-72
2023/11/13 12:32:08;;;;;;;2.20;1.67;;;;;;;;;;5885591;28;20049;-72
2023/11/13 12:35:06;;;;;;;1.27;0.95;;;;;;;;;;5885392;28;20426;-72
2023/11/13 12:37:57;;;;;;;1.88;1.73;;;;;;;;;;5886442;28;20467;-71
2023/11/13 12:40:48;;;;;;;3.00;2.05;;;;;;;;;;5884782;28;20418;-72
2023/11/13 12:43:39;;;;;;;1.83;1.13;;;;;;;;;;5886213;28;20065;-72
2023/11/13 12:46:30;;;;;;;7.00;2.65;;;;;;;;;;5879754;28;20049;-72
2023/11/13 12:49:21;;;;;;;1.25;1.15;;;;;;;;;;5863226;28;20061;-72
2023/11/13 12:52:16;;;;;;;1.38;1.25;;;;;;;;;;5862727;28;20056;-72
2023/11/13 12:55:21;;;;;;;2.85;1.63;;;;;;;;;;5862818;28;20051;-72
2023/11/13 12:58:16;;;;;;;2.33;1.65;;;;;;;;;;5862481;28;20757;-72
2023/11/13 13:01:11;;;;;;;1.83;1.58;;;;;;;;;;5862068;28;20053;-72
2023/11/13 13:04:04;;;;;;;4.35;2.40;;;;;;;;;;5862921;28;20128;-72
2023/11/13 13:06:56;;;;;;;1.85;1.60;;;;;;;;;;5865190;28;20110;-73
2023/11/13 13:09:47;;;;;;;2.70;2.25;;;;;;;;;;5867840;28;20547;-72
2023/11/13 13:12:40;;;;;;;13.50;5.97;;;;;;;;;;5866671;28;20408;-73
2023/11/13 13:15:31;;;;;;;17.83;12.27;;;;;;;;;;5866651;28;20045;-73
2023/11/13 13:18:22;;;;;;;31.17;16.65;;;;;;;;;;5866864;28;20053;-73
2023/11/13 13:21:21;;;;;;;13.20;8.73;;;;;;;;;;5867267;28;20561;-73
2023/11/13 13:24:12;;;;;;;32.88;18.20;;;;;;;;;;5867215;28;20060;-72
2023/11/13 13:27:05;;;;;;;13.35;11.05;;;;;;;;;;5866662;28;20096;-72
2023/11/13 13:29:55;;;;;;;8.40;7.30;;;;;;;;;;5867135;28;20499;-72
2023/11/13 13:32:46;;;;;;;18.15;7.13;;;;;;;;;;5867076;28;20052;-72
2023/11/13 13:35:38;;;;;;;10.95;4.45;;;;;;;;;;5866767;28;20128;-72
2023/11/13 13:38:28;;;;;;;8.60;5.80;;;;;;;;;;5866558;28;20517;-72
2023/11/13 13:41:22;;;;;;;5.85;3.45;;;;;;;;;;5866890;28;20076;-72
2023/11/13 13:44:13;;;;;;;13.80;8.90;;;;;;;;;;5875654;28;20045;-72
2023/11/13 13:47:05;;;;;;;17.60;14.77;;;;;;;;;;5886078;28;20154;-72
2023/11/13 13:49:57;;;;;;;18.05;10.30;;;;;;;;;;5887995;28;20407;-72
2023/11/13 13:52:55;;;;;;;28.00;13.63;;;;;;;;;;5887140;28;20040;-72
2023/11/13 13:55:47;;;;;;;15.27;5.95;;;;;;;;;;5887325;28;20574;-72
2023/11/13 13:58:40;;;;;;;5.28;3.65;;;;;;;;;;5887013;28;20499;-72
2023/11/13 14:01:32;;;;;;;6.50;4.25;;;;;;;;;;5888184;28;20045;-72
2023/11/13 14:04:23;;;;;;;9.45;3.75;;;;;;;;;;5889086;28;20041;-72
2023/11/13 14:07:14;;;;;;;7.32;1.67;;;;;;;;;;5889141;28;20049;-72
2023/11/13 14:10:07;;;;;;;3.55;1.75;;;;;;;;;;5888947;28;20183;-72
2023/11/13 14:12:59;;;;;;;1.92;1.75;;;;;;;;;;5889565;28;20490;-72
2023/11/13 14:15:50;;;;;;;10.95;2.97;;;;;;;;;;5888972;28;20075;-73
2023/11/13 14:18:59;;;;;;;2.45;1.77;;;;;;;;;;5888637;28;20044;-73
2023/11/13 14:21:50;;;;;;;1.35;1.25;;;;;;;;;;5889154;28;20049;-73
2023/11/13 14:24:40;;;;;;;5.22;3.58;;;;;;;;;;5888833;28;20049;-73
2023/11/13 14:27:32;;;;;;;17.83;8.50;;;;;;;;;;5888640;28;20121;-72
2023/11/13 14:30:25;;;;;;;17.42;11.43;;;;;;;;;;5888792;28;20409;-73
2023/11/13 14:33:18;;;;;;;24.02;14.73;;;;;;;;;;5888531;28;20138;-73
2023/11/13 14:36:09;;;;;;;20.48;12.35;;;;;;;;;;5887180;28;20521;-73
2023/11/13 14:39:00;;;;;;;10.10;7.63;;;;;;;;;;5888867;28;20056;-73
2023/11/13 14:41:51;;;;;;;11.10;7.57;;;;;;;;;;5888964;28;20041;-72
2023/11/13 14:44:42;;;;;;;9.25;6.15;;;;;;;;;;5888300;28;20048;-72
2023/11/13 14:47:37;;;;;;;10.07;7.50;;;;;;;;;;5888362;28;20055;-73
2023/11/13 14:50:30;;;;;;;24.08;5.53;;;;;;;;;;5888388;28;20048;-73
2023/11/13 14:53:21;;;;;;;11.00;7.07;;;;;;;;;;5888427;28;20106;-73
2023/11/13 14:56:13;;;;;;;7.72;3.10;;;;;;;;;;5888214;28;20049;-72
2023/11/13 14:59:04;;;;;;;8.15;4.65;;;;;;;;;;5888382;28;20510;-73
2023/11/13 15:01:57;;;;;;;8.10;5.30;;;;;;;;;;5888587;28;20045;-72
2023/11/13 15:04:48;;;;;;;6.45;4.30;;;;;;;;;;5888052;28;20123;-72
2023/11/13 15:07:40;;;;;;;7.47;3.53;;;;;;;;;;5888007;28;20041;-72
2023/11/13 15:10:32;;;;;;;50.88;19.40;;;;;;;;;;5887789;28;20048;-72
2023/11/13 15:13:24;;;;;;;76.90;26.42;;;;;;;;;;5886431;28;20044;-72
2023/11/13 15:16:16;;;;;;;16.25;5.03;;;;;;;;;;5887935;28;20407;-72
2023/11/13 15:19:08;;;;;;;3.22;1.95;;;;;;;;;;5887476;28;20037;-72
2023/11/13 15:21:59;;;;;;;4.88;3.88;;;;;;;;;;5887955;28;20036;-72
2023/11/13 15:24:51;;;;;;;10.32;5.35;;;;;;;;;;5888046;28;20465;-72
2023/11/13 15:27:43;;;;;;;6.55;4.25;;;;;;;;;;5887410;28;20055;-72
2023/11/13 15:30:33;;;;;;;8.23;5.20;;;;;;;;;;5886711;28;20087;-72
2023/11/13 15:33:24;;;;;;;11.40;5.85;;;;;;;;;;5887374;28;20435;-73
2023/11/13 15:36:17;;;;;;;10.43;6.68;;;;;;;;;;5887599;28;20056;-72
2023/11/13 15:39:08;;;;;;;13.15;7.60;;;;;;;;;;5887021;28;20045;-72
2023/11/13 15:41:59;;;;;;;14.23;6.15;;;;;;;;;;5887654;28;20041;-73
2023/11/13 15:44:50;;;;;;;12.82;6.05;;;;;;;;;;5887738;28;20421;-73
2023/11/13 15:47:41;;;;;;;25.83;9.07;;;;;;;;;;5886907;28;20041;-72
2023/11/13 15:50:32;;;;;;;8.32;7.28;;;;;;;;;;5886888;28;20151;-72
2023/11/13 15:53:23;;;;;;;29.40;10.77;;;;;;;;;;5886807;28;20079;-73
2023/11/13 15:56:14;;;;;;;19.45;13.32;;;;;;;;;;5886959;28;20532;-73
2023/11/13 15:59:05;;;;;;;27.80;16.23;;;;;;;;;;5886662;28;20044;-72
2023/11/13 16:01:56;;;;;;;21.85;12.48;;;;;;;;;;5887536;28;20049;-73
2023/11/13 16:04:56;;;;;;;33.88;17.80;;;;;;;;;;5887333;28;20127;-72
2023/11/13 16:07:48;;;;;;;23.42;11.25;;;;;;;;;;5886734;28;20056;-73
2023/11/13 16:10:39;;;;;;;45.50;19.73;;;;;;;;;;5886386;28;20120;-73
2023/11/13 16:13:30;;;;;;;62.65;26.13;;;;;;;;;;5886471;28;20049;-73
2023/11/13 16:16:21;;;;;;;44.30;19.00;;;;;;;;;;5886555;28;20060;-72
2023/11/13 16:19:12;;;;;;;50.10;15.88;;;;;;;;;;5886291;28;20063;-72
2023/11/13 16:22:04;;;;;;;40.65;19.25;;;;;;;;;;5886411;28;20084;-72
2023/11/13 16:24:56;;;;;;;36.05;18.15;;;;;;;;;;5887088;28;20049;-72
2023/11/13 16:27:46;;;;;;;30.73;15.80;;;;;;;;;;5886339;28;20049;-73
2023/11/13 16:30:37;;;;;;;54.65;24.38;;;;;;;;;;5886267;28;20051;-72
2023/11/13 16:33:29;;;;;;;30.60;13.77;;;;;;;;;;5886061;28;20052;-72
2023/11/13 16:36:19;;;;;;;58.92;18.08;;;;;;;;;;5886184;28;20052;-72
2023/11/13 16:39:12;;;;;;;35.35;15.93;;;;;;;;;;5886001;28;20418;-72
2023/11/13 16:42:04;;;;;;;44.50;16.90;;;;;;;;;;5885856;28;20057;-72
2023/11/13 16:44:55;;;;;;;38.20;16.13;;;;;;;;;;5883262;28;20045;-72
2023/11/13 16:47:46;;;;;;;35.17;14.90;;;;;;;;;;5882714;28;20268;-72
2023/11/13 16:50:38;;;;;;;30.95;16.45;;;;;;;;;;5883964;28;20075;-72
2023/11/13 16:53:29;;;;;;;79.00;31.95;;;;;;;;;;5884595;28;20041;-72
2023/11/13 16:56:21;;;;;;;60.92;25.70;;;;;;;;;;5885807;28;20052;-72
2023/11/13 16:59:12;;;;;;;63.05;25.77;;;;;;;;;;5885585;28;20060;-72
2023/11/13 17:02:03;;;;;;;45.03;20.15;;;;;;;;;;5885771;28;20525;-72
2023/11/13 17:04:54;;;;;;;65.53;27.35;;;;;;;;;;5886427;28;20044;-72
2023/11/13 17:07:46;;;;;;;79.93;30.35;;;;;;;;;;5885566;28;20131;-72